createdAt,value
2022-10-29T00:00:23.604Z,39
2022-10-29T00:01:28.387Z,40
2022-10-29T00:02:32.862Z,39
2022-10-29T00:03:37.335Z,40
2022-10-29T00:04:42.075Z,38
2022-10-29T00:05:46.564Z,36
2022-10-29T00:07:01.195Z,27
2022-10-29T00:08:05.259Z,31
2022-10-29T00:09:09.395Z,30
2022-10-29T00:10:13.918Z,35
2022-10-29T00:11:18.180Z,37
2022-10-29T00:12:22.699Z,46
2022-10-29T00:13:27.251Z,39
2022-10-29T00:14:31.618Z,40
2022-10-29T00:15:35.975Z,36
2022-10-29T00:16:43.420Z,39
2022-10-29T00:17:47.675Z,33
2022-10-29T00:18:52.184Z,34
2022-10-29T00:19:56.471Z,39
2022-10-29T00:21:00.934Z,34
2022-10-29T00:22:05.755Z,45
2022-10-29T00:23:10.568Z,44
2022-10-29T00:24:15.055Z,41
2022-10-29T00:25:21.343Z,40
2022-10-29T00:26:25.971Z,45
2022-10-29T00:27:30.924Z,46
2022-10-29T00:28:35.279Z,41
2022-10-29T00:29:39.764Z,42
2022-10-29T00:30:44.022Z,40
2022-10-29T00:31:48.492Z,35
2022-10-29T00:32:53.211Z,40
2022-10-29T00:33:57.621Z,35
2022-10-29T00:35:02.147Z,38
2022-10-29T00:36:06.847Z,31
2022-10-29T00:37:14.368Z,32
2022-10-29T00:38:18.987Z,36
2022-10-29T00:39:23.783Z,27
2022-10-29T00:40:28.344Z,30
2022-10-29T00:41:32.839Z,27
2022-10-29T00:42:37.260Z,35
2022-10-29T00:43:42.027Z,32
2022-10-29T00:44:52.516Z,34
2022-10-29T00:45:57.172Z,25
2022-10-29T00:47:04.242Z,39
2022-10-29T00:48:19.115Z,33
2022-10-29T00:49:23.432Z,40
2022-10-29T00:50:27.622Z,40
2022-10-29T00:51:32.180Z,29
2022-10-29T00:52:36.651Z,29
2022-10-29T00:53:41.236Z,32
2022-10-29T00:54:45.683Z,34
2022-10-29T00:55:50.158Z,34
2022-10-29T00:56:54.758Z,33
2022-10-29T00:57:59.594Z,25
2022-10-29T00:59:03.839Z,27
2022-10-29T01:00:08.587Z,28
2022-10-29T01:01:13.527Z,31
2022-10-29T01:02:18.355Z,33
2022-10-29T01:03:22.687Z,31
2022-10-29T01:04:27.024Z,35
2022-10-29T01:05:31.575Z,32
2022-10-29T01:06:35.884Z,33
2022-10-29T01:07:40.067Z,37
2022-10-29T01:08:45.027Z,25
2022-10-29T01:09:49.311Z,29
2022-10-29T01:10:53.935Z,30
2022-10-29T01:12:09.140Z,36
2022-10-29T01:13:20.204Z,42
2022-10-29T01:14:29.783Z,39
2022-10-29T01:15:39.343Z,35
2022-10-29T01:16:48.968Z,39
2022-10-29T01:18:01.636Z,38
2022-10-29T01:19:11.393Z,35
2022-10-29T01:20:21.020Z,39
2022-10-29T01:21:33.132Z,38
2022-10-29T01:22:45.539Z,32
2022-10-29T01:24:00.248Z,45
2022-10-29T01:25:09.807Z,41
2022-10-29T01:26:19.560Z,42
2022-10-29T01:27:26.899Z,38
2022-10-29T01:28:42.151Z,42
2022-10-29T01:29:54.660Z,39
2022-10-29T01:31:07.323Z,40
2022-10-29T01:32:17.036Z,46
2022-10-29T01:33:26.800Z,42
2022-10-29T01:34:39.767Z,48
2022-10-29T01:35:49.511Z,39
2022-10-29T01:37:01.728Z,45
2022-10-29T01:38:11.494Z,45
2022-10-29T01:39:26.508Z,43
2022-10-29T01:40:35.996Z,58
2022-10-29T01:41:45.458Z,47
2022-10-29T01:42:57.974Z,53
2022-10-29T01:44:07.507Z,49
2022-10-29T01:45:20.095Z,51
2022-10-29T01:46:30.051Z,45
2022-10-29T01:47:44.625Z,49
2022-10-29T01:48:54.183Z,49
2022-10-29T01:49:58.967Z,51
2022-10-29T01:51:03.523Z,53
2022-10-29T01:52:10.495Z,55
2022-10-29T01:53:15.163Z,54
2022-10-29T01:54:19.722Z,55
2022-10-29T01:55:24.283Z,61
2022-10-29T01:56:31.657Z,56
2022-10-29T01:57:36.291Z,55
2022-10-29T01:58:40.520Z,51
2022-10-29T01:59:55.397Z,54
2022-10-29T02:00:49.490Z,47
2022-10-29T02:02:04.218Z,51
2022-10-29T02:03:11.151Z,50
2022-10-29T02:04:26.075Z,52
2022-10-29T02:05:40.652Z,47
2022-10-29T02:06:55.456Z,59
2022-10-29T02:08:10.367Z,51
2022-10-29T02:09:19.991Z,55
2022-10-29T02:10:29.505Z,54
2022-10-29T02:11:33.545Z,52
2022-10-29T02:12:40.703Z,59
2022-10-29T02:13:48.074Z,55
2022-10-29T02:14:55.079Z,52
2022-10-29T02:15:59.556Z,50
2022-10-29T02:17:03.819Z,62
2022-10-29T02:18:08.343Z,58
2022-10-29T02:19:12.974Z,62
2022-10-29T02:20:17.484Z,57
2022-10-29T02:21:22.023Z,64
2022-10-29T02:22:26.567Z,64
2022-10-29T02:23:31.323Z,61
2022-10-29T02:24:35.715Z,62
2022-10-29T02:25:40.384Z,62
2022-10-29T02:26:44.595Z,57
2022-10-29T02:27:49.102Z,62
2022-10-29T02:28:53.818Z,50
2022-10-29T02:29:58.194Z,52
2022-10-29T02:31:02.834Z,55
2022-10-29T02:32:07.675Z,52
2022-10-29T02:33:12.987Z,54
2022-10-29T02:34:17.058Z,61
2022-10-29T02:35:21.684Z,52
2022-10-29T02:36:26.147Z,55
2022-10-29T02:37:30.692Z,56
2022-10-29T02:38:34.831Z,53
2022-10-29T02:39:39.467Z,55
2022-10-29T02:40:43.979Z,52
2022-10-29T02:41:48.259Z,56
2022-10-29T02:42:52.987Z,52
2022-10-29T02:43:57.252Z,54
2022-10-29T02:45:01.843Z,56
2022-10-29T02:46:06.535Z,58
2022-10-29T02:47:13.571Z,57
2022-10-29T02:48:18.229Z,60
2022-10-29T02:49:22.661Z,65
2022-10-29T02:50:27.271Z,63
2022-10-29T02:51:31.919Z,64
2022-10-29T02:52:38.282Z,66
2022-10-29T02:53:42.674Z,66
2022-10-29T02:54:46.779Z,60
2022-10-29T02:55:51.252Z,65
2022-10-29T02:56:55.827Z,65
2022-10-29T02:58:00.570Z,56
2022-10-29T02:59:06.407Z,62
2022-10-29T03:00:09.775Z,57
2022-10-29T03:01:14.254Z,62
2022-10-29T03:02:18.982Z,59
2022-10-29T03:03:23.355Z,68
2022-10-29T03:04:27.919Z,66
2022-10-29T03:05:32.562Z,56
2022-10-29T03:06:37.131Z,63
2022-10-29T03:07:41.755Z,62
2022-10-29T03:08:46.342Z,60
2022-10-29T03:09:50.867Z,60
2022-10-29T03:10:54.983Z,58
2022-10-29T03:11:59.619Z,57
2022-10-29T03:13:04.397Z,57
2022-10-29T03:14:09.044Z,51
2022-10-29T03:15:13.315Z,58
2022-10-29T03:16:18.003Z,60
2022-10-29T03:17:22.447Z,67
2022-10-29T03:18:27.279Z,55
2022-10-29T03:19:31.815Z,56
2022-10-29T03:20:36.419Z,63
2022-10-29T03:21:40.839Z,57
2022-10-29T03:22:45.462Z,53
2022-10-29T03:23:49.994Z,48
2022-10-29T03:24:54.863Z,55
2022-10-29T03:25:59.171Z,56
2022-10-29T03:27:03.895Z,59
2022-10-29T03:28:08.364Z,55
2022-10-29T03:29:12.508Z,60
2022-10-29T03:30:17.056Z,57
2022-10-29T03:31:21.792Z,64
2022-10-29T03:32:26.438Z,64
2022-10-29T03:33:30.793Z,61
2022-10-29T03:34:35.374Z,64
2022-10-29T03:35:40.066Z,68
2022-10-29T03:36:44.551Z,61
2022-10-29T03:37:48.719Z,60
2022-10-29T03:38:53.378Z,65
2022-10-29T03:39:58.337Z,66
2022-10-29T03:41:02.759Z,69
2022-10-29T03:42:07.251Z,64
2022-10-29T03:43:11.889Z,66
2022-10-29T03:44:16.262Z,65
2022-10-29T03:45:21.238Z,68
2022-10-29T03:46:25.562Z,65
2022-10-29T03:47:30.047Z,67
2022-10-29T03:48:34.783Z,59
2022-10-29T03:49:39.304Z,71
2022-10-29T03:50:43.829Z,68
2022-10-29T03:51:56.051Z,68
2022-10-29T03:53:00.590Z,62
2022-10-29T03:54:04.671Z,68
2022-10-29T03:55:08.816Z,67
2022-10-29T03:56:13.605Z,68
2022-10-29T03:57:17.968Z,67
2022-10-29T03:58:22.515Z,61
2022-10-29T03:59:26.587Z,66
2022-10-29T04:00:30.652Z,68
2022-10-29T04:01:35.464Z,74
2022-10-29T04:02:40.519Z,77
2022-10-29T04:03:44.999Z,68
2022-10-29T04:04:49.615Z,68
2022-10-29T04:05:54.710Z,73
2022-10-29T04:06:59.394Z,72
2022-10-29T04:08:03.882Z,76
2022-10-29T04:09:08.567Z,77
2022-10-29T04:10:13.106Z,82
2022-10-29T04:11:17.599Z,81
2022-10-29T04:12:22.567Z,83
2022-10-29T04:13:26.879Z,82
2022-10-29T04:14:31.416Z,82
2022-10-29T04:15:35.711Z,84
2022-10-29T04:16:40.107Z,74
2022-10-29T04:17:44.830Z,90
2022-10-29T04:18:49.242Z,77
2022-10-29T04:19:53.326Z,83
2022-10-29T04:23:54.471Z,88
2022-10-29T04:28:44.688Z,93
2022-10-29T04:29:33.638Z,90
2022-10-29T04:30:38.197Z,85
2022-10-29T04:31:42.770Z,89
2022-10-29T04:32:47.467Z,90
2022-10-29T04:33:52.191Z,90
2022-10-29T04:34:56.599Z,89
2022-10-29T04:36:01.191Z,83
2022-10-29T04:37:05.746Z,86
2022-10-29T04:38:10.466Z,81
2022-10-29T04:39:17.148Z,90
2022-10-29T04:40:19.568Z,88
2022-10-29T04:41:24.110Z,89
2022-10-29T04:42:28.718Z,89
2022-10-29T04:43:38.234Z,84
2022-10-29T04:44:42.898Z,92
2022-10-29T04:45:47.545Z,93
2022-10-29T04:46:52.058Z,94
2022-10-29T04:47:56.880Z,90
2022-10-29T04:49:01.368Z,91
2022-10-29T04:50:05.961Z,80
2022-10-29T04:51:10.335Z,82
2022-10-29T04:52:19.999Z,80
2022-10-29T04:53:24.211Z,92
2022-10-29T04:54:28.734Z,89
2022-10-29T04:55:33.383Z,92
2022-10-29T04:56:37.775Z,89
2022-10-29T04:57:42.290Z,89
2022-10-29T04:58:51.610Z,93
2022-10-29T04:59:56.248Z,85
2022-10-29T05:01:01.055Z,90
2022-10-29T05:02:05.419Z,85
2022-10-29T05:03:10.011Z,85
2022-10-29T05:04:14.459Z,93
2022-10-29T05:05:19.018Z,91
2022-10-29T05:06:23.706Z,93
2022-10-29T05:07:28.559Z,95
2022-10-29T05:08:32.833Z,86
2022-10-29T05:09:37.437Z,85
2022-10-29T05:10:42.032Z,81
2022-10-29T05:11:46.726Z,80
2022-10-29T05:12:51.330Z,83
2022-10-29T05:13:58.474Z,86
2022-10-29T05:15:02.954Z,90
2022-10-29T05:16:07.409Z,92
2022-10-29T05:17:12.041Z,95
2022-10-29T05:18:16.090Z,93
2022-10-29T05:19:20.698Z,98
2022-10-29T05:20:25.434Z,89
2022-10-29T05:21:29.970Z,101
2022-10-29T05:22:34.571Z,100
2022-10-29T05:23:39.090Z,92
2022-10-29T05:24:43.806Z,105
2022-10-29T05:25:48.379Z,100
2022-10-29T05:26:52.835Z,97
2022-10-29T05:27:57.892Z,97
2022-10-29T05:29:05.203Z,95
2022-10-29T05:30:09.764Z,110
2022-10-29T05:31:14.470Z,103
2022-10-29T05:32:18.961Z,97
2022-10-29T05:33:23.383Z,109
2022-10-29T05:34:27.953Z,100
2022-10-29T05:35:32.198Z,94
2022-10-29T05:36:37.133Z,103
2022-10-29T05:37:41.348Z,103
2022-10-29T05:38:45.798Z,106
2022-10-29T05:39:50.208Z,105
2022-10-29T05:40:57.379Z,103
2022-10-29T05:42:01.991Z,98
2022-10-29T05:43:06.365Z,110
2022-10-29T05:44:10.853Z,106
2022-10-29T05:45:15.091Z,106
2022-10-29T05:46:19.731Z,105
2022-10-29T05:47:24.182Z,108
2022-10-29T05:48:28.606Z,104
2022-10-29T05:49:32.858Z,105
2022-10-29T05:50:37.512Z,106
2022-10-29T05:51:41.987Z,108
2022-10-29T05:52:46.539Z,109
2022-10-29T05:53:58.883Z,110
2022-10-29T05:55:03.590Z,109
2022-10-29T05:56:07.986Z,111
2022-10-29T05:57:12.586Z,112
2022-10-29T05:58:17.167Z,107
2022-10-29T05:59:21.987Z,111
2022-10-29T06:00:26.379Z,111
2022-10-29T06:01:30.841Z,109
2022-10-29T06:02:35.497Z,112
2022-10-29T06:03:40.178Z,116
2022-10-29T06:04:44.717Z,115
2022-10-29T06:05:49.475Z,118
2022-10-29T06:06:53.962Z,116
2022-10-29T06:07:58.573Z,116
2022-10-29T06:09:02.572Z,116
2022-10-29T06:10:07.135Z,103
2022-10-29T06:11:11.782Z,111
2022-10-29T06:12:16.494Z,108
2022-10-29T06:13:20.791Z,115
2022-10-29T06:14:24.946Z,109
2022-10-29T06:15:29.645Z,112
2022-10-29T06:16:34.138Z,107
2022-10-29T06:17:38.850Z,103
2022-10-29T06:18:43.318Z,105
2022-10-29T06:19:47.883Z,102
2022-10-29T06:20:52.054Z,100
2022-10-29T06:21:59.390Z,106
2022-10-29T06:23:01.462Z,107
2022-10-29T06:24:06.018Z,106
2022-10-29T06:25:10.429Z,113
2022-10-29T06:26:15.123Z,106
2022-10-29T06:27:19.666Z,109
2022-10-29T06:28:24.181Z,119
2022-10-29T06:29:28.954Z,111
2022-10-29T06:30:33.527Z,108
2022-10-29T06:31:38.010Z,108
2022-10-29T06:32:42.606Z,109
2022-10-29T06:33:47.654Z,107
2022-10-29T06:34:52.697Z,111
2022-10-29T06:35:57.563Z,99
2022-10-29T06:37:02.229Z,108
2022-10-29T06:38:09.230Z,107
2022-10-29T06:39:11.178Z,100
2022-10-29T06:40:15.754Z,112
2022-10-29T06:41:20.346Z,112
2022-10-29T06:42:25.113Z,110
2022-10-29T06:43:29.483Z,108
2022-10-29T06:44:35.266Z,104
2022-10-29T06:45:39.852Z,107
2022-10-29T06:46:44.065Z,105
2022-10-29T06:47:50.027Z,105
2022-10-29T06:48:54.625Z,105
2022-10-29T06:49:59.315Z,107
2022-10-29T06:51:03.713Z,105
2022-10-29T06:52:07.815Z,107
2022-10-29T06:53:11.993Z,111
2022-10-29T06:54:16.586Z,114
2022-10-29T06:55:24.345Z,111
2022-10-29T06:56:30.230Z,111
2022-10-29T06:57:34.505Z,123
2022-10-29T06:58:38.989Z,117
2022-10-29T06:59:43.133Z,115
2022-10-29T07:00:48.124Z,117
2022-10-29T07:01:52.466Z,117
2022-10-29T07:02:57.370Z,118
2022-10-29T07:04:01.890Z,113
2022-10-29T07:05:06.699Z,109
2022-10-29T07:06:11.077Z,107
2022-10-29T07:07:15.266Z,106
2022-10-29T07:08:21.453Z,109
2022-10-29T07:09:29.673Z,111
2022-10-29T07:10:34.361Z,110
2022-10-29T07:11:38.643Z,115
2022-10-29T07:12:42.838Z,105
2022-10-29T07:13:47.693Z,109
2022-10-29T07:14:52.046Z,118
2022-10-29T07:15:56.582Z,115
2022-10-29T07:17:01.345Z,105
2022-10-29T07:18:05.686Z,109
2022-10-29T07:19:10.585Z,108
2022-10-29T07:20:15.014Z,109
2022-10-29T07:21:19.739Z,110
2022-10-29T07:22:24.125Z,108
2022-10-29T07:24:32.919Z,106
2022-10-29T07:25:37.362Z,110
2022-10-29T07:26:41.851Z,109
2022-10-29T07:27:46.717Z,111
2022-10-29T07:28:51.146Z,114
2022-10-29T07:29:55.650Z,109
2022-10-29T07:31:00.273Z,110
2022-10-29T07:32:05.026Z,111
2022-10-29T07:33:09.285Z,107
2022-10-29T07:34:13.646Z,105
2022-10-29T07:35:18.113Z,108
2022-10-29T07:36:22.773Z,102
2022-10-29T07:37:27.290Z,114
2022-10-29T07:38:31.874Z,108
2022-10-29T07:39:36.627Z,114
2022-10-29T07:40:41.008Z,109
2022-10-29T07:41:48.146Z,109
2022-10-29T07:42:52.923Z,105
2022-10-29T07:43:57.662Z,103
2022-10-29T07:45:01.849Z,104
2022-10-29T07:46:06.483Z,103
2022-10-29T07:47:10.997Z,103
2022-10-29T07:49:31.549Z,114
2022-10-29T07:50:35.879Z,106
2022-10-29T07:51:40.005Z,103
2022-10-29T07:52:44.302Z,98
2022-10-29T08:04:16.109Z,90
2022-10-29T08:05:20.480Z,83
2022-10-29T08:06:25.110Z,82
2022-10-29T08:07:29.669Z,83
2022-10-29T08:14:08.184Z,71
2022-10-29T08:15:12.566Z,67
2022-10-29T08:16:17.052Z,70
2022-10-29T08:17:21.150Z,69
2022-10-29T08:18:25.821Z,62
2022-10-29T08:19:58.659Z,63
2022-10-29T08:21:03.130Z,63
2022-10-29T08:22:07.535Z,54
2022-10-29T08:23:12.246Z,63
2022-10-29T08:24:16.734Z,57
2022-10-29T08:27:26.173Z,55
2022-10-29T08:28:31.808Z,47
2022-10-29T08:29:34.594Z,50
2022-10-29T08:30:54.349Z,50
2022-10-29T08:31:58.404Z,52
2022-10-29T08:33:05.324Z,50
2022-10-29T08:34:11.157Z,53
2022-10-29T08:35:14.044Z,44
2022-10-29T08:36:23.554Z,46
2022-10-29T08:37:28.041Z,40
2022-10-29T08:38:32.191Z,37
2022-10-29T08:40:38.905Z,37
2022-10-29T08:42:10.147Z,39
2022-10-29T08:43:19.681Z,49
2022-10-29T08:44:32.412Z,45
2022-10-29T08:45:42.060Z,51
2022-10-29T08:46:46.581Z,53
2022-10-29T08:49:24.943Z,53
2022-10-29T08:51:33.925Z,53
2022-10-29T08:52:48.263Z,41
2022-10-29T08:53:54.108Z,43
2022-10-29T08:55:07.894Z,41
2022-10-29T08:56:14.697Z,39
2022-10-29T08:57:24.356Z,35
2022-10-29T08:59:00.068Z,28
2022-10-29T09:00:18.216Z,25
2022-10-29T09:01:25.894Z,33
2022-10-29T09:02:30.154Z,34
2022-10-29T09:03:34.844Z,25
2022-10-29T09:09:06.821Z,25
2022-10-29T09:10:16.673Z,29
2022-10-29T09:11:29.301Z,28
2022-10-29T09:12:41.920Z,29
2022-10-29T09:13:56.851Z,26
2022-10-29T09:36:59.821Z,33
2022-10-29T09:38:04.701Z,38
2022-10-29T09:39:33.867Z,29
2022-10-29T09:40:33.881Z,25
2022-10-29T09:41:38.180Z,36
2022-10-29T09:42:44.341Z,33
2022-10-29T09:43:48.503Z,37
2022-10-29T09:46:00.249Z,37
2022-10-29T09:58:54.086Z,37
2022-10-29T10:01:03.046Z,37
2022-10-29T10:03:09.749Z,37
2022-10-29T10:14:45.992Z,37
2022-10-29T10:16:52.633Z,37
2022-10-29T10:49:37.742Z,37
2022-10-29T10:51:44.401Z,37
2022-10-29T10:53:12.321Z,65
2022-10-29T10:56:37.104Z,58
2022-10-29T10:57:51.848Z,60
2022-10-29T10:59:01.288Z,59
2022-10-29T11:00:09.018Z,69
2022-10-29T11:01:19.491Z,65
2022-10-29T11:05:40.840Z,63
2022-10-29T11:07:57.741Z,63
2022-10-29T11:09:15.289Z,49
2022-10-29T11:10:24.856Z,44
2022-10-29T11:11:32.333Z,43
2022-10-29T11:12:42.816Z,44
2022-10-29T11:13:52.516Z,44
2022-10-29T11:15:53.833Z,40
2022-10-29T11:24:05.896Z,34
2022-10-29T11:25:49.246Z,35
2022-10-29T11:26:56.302Z,45
2022-10-29T11:28:05.868Z,46
2022-10-29T11:29:27.210Z,34
2022-10-29T11:30:42.012Z,34
2022-10-29T11:31:51.772Z,25
2022-10-29T11:33:06.421Z,45
2022-10-29T11:34:16.285Z,35
2022-10-29T11:44:52.458Z,55
2022-10-29T11:45:58.475Z,57
2022-10-29T11:47:13.575Z,42
2022-10-29T11:48:28.611Z,54
2022-10-29T11:49:41.648Z,58
2022-10-29T11:50:57.479Z,55
2022-10-29T11:52:12.583Z,58
2022-10-29T11:53:27.406Z,53
2022-10-29T11:54:34.799Z,41
2022-10-29T11:55:49.940Z,54
2022-10-29T11:57:04.800Z,49
2022-10-29T11:58:14.452Z,45
2022-10-29T11:59:18.988Z,47
2022-10-29T12:00:24.171Z,41
2022-10-29T12:01:28.617Z,51
2022-10-29T12:02:44.050Z,46
2022-10-29T12:03:59.178Z,42
2022-10-29T12:05:07.511Z,45
2022-10-29T12:06:17.315Z,39
2022-10-29T12:07:26.968Z,49
2022-10-29T12:08:37.295Z,40
2022-10-29T12:09:47.307Z,39
2022-10-29T12:11:02.944Z,25
2022-10-29T12:12:13.999Z,26
2022-10-29T12:13:28.115Z,29
2022-10-29T12:14:38.182Z,33
2022-10-29T12:15:45.637Z,35
2022-10-29T12:17:01.034Z,41
2022-10-29T12:18:11.047Z,49
2022-10-29T12:19:23.266Z,30
2022-10-29T12:20:33.960Z,33
2022-10-29T12:21:39.227Z,37
2022-10-29T12:22:47.751Z,39
2022-10-29T12:23:58.239Z,25
2022-10-29T12:25:10.354Z,50
2022-10-29T12:26:25.023Z,42
2022-10-29T12:27:38.038Z,41
2022-10-29T12:28:47.961Z,36
2022-10-29T12:29:58.987Z,35
2022-10-29T12:31:07.007Z,39
2022-10-29T12:32:15.387Z,44
2022-10-29T12:33:24.959Z,38
2022-10-29T12:34:29.539Z,35
2022-10-29T12:35:39.678Z,37
2022-10-29T12:36:57.436Z,30
2022-10-29T12:38:10.374Z,32
2022-10-29T12:39:14.811Z,32
2022-10-29T12:40:24.707Z,36
2022-10-29T12:41:33.058Z,33
2022-10-29T12:42:38.291Z,31
2022-10-29T12:43:43.222Z,32
2022-10-29T12:44:49.820Z,27
2022-10-29T12:46:19.429Z,38
2022-10-29T12:47:12.482Z,30
2022-10-29T12:48:25.858Z,48
2022-10-29T12:49:33.566Z,37
2022-10-29T12:50:48.562Z,48
2022-10-29T12:52:03.523Z,47
2022-10-29T12:53:11.462Z,59
2022-10-29T12:54:18.427Z,51
2022-10-29T12:55:27.984Z,58
2022-10-29T12:56:32.264Z,54
2022-10-29T12:57:37.266Z,52
2022-10-29T12:58:42.119Z,47
2022-10-29T12:59:51.958Z,44
2022-10-29T13:00:56.788Z,45
2022-10-29T13:02:17.018Z,42
2022-10-29T13:03:16.520Z,49
2022-10-29T13:04:32.020Z,40
2022-10-29T13:05:38.419Z,49
2022-10-29T13:06:43.591Z,40
2022-10-29T13:07:48.104Z,41
2022-10-29T13:08:57.773Z,40
2022-10-29T13:10:01.934Z,38
2022-10-29T13:11:17.018Z,42
2022-10-29T13:12:21.667Z,27
2022-10-29T13:13:31.728Z,33
2022-10-29T13:14:36.006Z,35
2022-10-29T13:15:43.340Z,33
2022-10-29T13:16:48.219Z,37
2022-10-29T13:17:52.879Z,40
2022-10-29T13:18:57.336Z,44
2022-10-29T13:20:04.574Z,48
2022-10-29T13:21:09.622Z,39
2022-10-29T13:22:13.814Z,46
2022-10-29T13:23:18.752Z,44
2022-10-29T13:24:23.419Z,59
2022-10-29T13:25:28.459Z,61
2022-10-29T13:26:37.422Z,61
2022-10-29T13:27:52.482Z,75
2022-10-29T13:28:57.424Z,73
2022-10-29T13:30:02.385Z,67
2022-10-29T13:31:12.114Z,75
2022-10-29T13:32:16.423Z,74
2022-10-29T13:33:29.134Z,69
2022-10-29T13:34:33.343Z,72
2022-10-29T13:35:48.414Z,73
2022-10-29T13:36:57.943Z,76
2022-10-29T13:38:12.498Z,86
2022-10-29T13:39:17.083Z,84
2022-10-29T13:40:21.341Z,89
2022-10-29T13:41:34.895Z,102
2022-10-29T13:42:42.195Z,99
2022-10-29T13:43:46.899Z,106
2022-10-29T13:44:54.347Z,108
2022-10-29T13:45:58.507Z,102
2022-10-29T13:47:08.222Z,103
2022-10-29T13:48:15.659Z,108
2022-10-29T13:49:25.198Z,110
2022-10-29T13:50:34.823Z,110
2022-10-29T13:51:39.811Z,100
2022-10-29T13:52:45.079Z,106
2022-10-29T13:53:49.895Z,108
2022-10-29T13:54:54.570Z,98
2022-10-29T13:56:09.223Z,108
2022-10-29T13:57:13.554Z,97
2022-10-29T13:59:25.047Z,97
2022-10-29T14:11:30.026Z,124
2022-10-29T14:12:37.840Z,120
2022-10-29T14:13:42.751Z,119
2022-10-29T14:14:49.654Z,115
2022-10-29T14:15:59.534Z,110
2022-10-29T14:40:06.548Z,122
2022-10-29T14:42:23.335Z,122
2022-10-29T14:44:34.978Z,122
2022-10-29T15:13:10.022Z,120
2022-10-29T15:15:37.012Z,120
2022-10-29T15:16:42.470Z,118
2022-10-29T15:17:46.130Z,121
2022-10-29T16:45:10.502Z,124
2022-10-29T16:46:17.626Z,113
2022-10-29T16:47:22.199Z,111
2022-10-29T16:48:26.695Z,116
2022-10-29T16:49:31.082Z,117
2022-10-29T16:55:31.001Z,117
2022-10-29T16:57:35.101Z,117
2022-10-29T16:59:41.573Z,117
2022-10-29T17:01:54.278Z,117
2022-10-29T17:04:00.946Z,117
2022-10-29T17:06:07.099Z,117
2022-10-29T18:07:42.434Z,111
2022-10-29T18:08:47.066Z,108
2022-10-29T18:09:51.553Z,108
2022-10-29T18:10:56.450Z,114
2022-10-29T18:12:09.206Z,112
2022-10-29T18:16:45.571Z,111
2022-10-29T18:17:49.789Z,115
2022-10-29T18:19:01.796Z,116
2022-10-29T18:19:59.906Z,116
2022-10-29T18:21:04.293Z,114
2022-10-29T18:22:12.361Z,110
2022-10-29T18:23:16.889Z,121
2022-10-29T18:24:21.366Z,118
2022-10-29T18:25:25.437Z,113
2022-10-29T18:26:29.590Z,118
2022-10-29T18:27:34.485Z,125
2022-10-29T18:28:39.037Z,119
2022-10-29T18:29:43.463Z,119
2022-10-29T18:30:47.934Z,115
2022-10-29T18:31:52.097Z,115
2022-10-29T18:32:58.798Z,119
2022-10-29T18:34:03.294Z,115
2022-10-29T18:35:07.673Z,117
2022-10-29T18:36:12.049Z,123
2022-10-29T18:37:16.641Z,123
2022-10-29T18:38:24.684Z,114
2022-10-29T18:39:27.025Z,122
2022-10-29T18:40:31.539Z,120
2022-10-29T18:41:39.162Z,115
2022-10-29T18:42:43.852Z,114
2022-10-29T18:43:48.289Z,116
2022-10-29T18:44:52.954Z,113
2022-10-29T18:45:57.349Z,110
2022-10-29T18:47:07.045Z,114
2022-10-29T18:48:11.728Z,104
2022-10-29T18:49:18.375Z,110
2022-10-29T18:50:22.633Z,122
2022-10-29T18:51:27.641Z,118
2022-10-29T18:52:32.441Z,113
2022-10-29T18:53:36.921Z,116
2022-10-29T18:54:48.778Z,114
2022-10-29T18:55:53.105Z,113
2022-10-29T18:56:57.666Z,119
2022-10-29T18:58:02.540Z,113
2022-10-29T18:59:07.305Z,116
2022-10-29T19:00:18.376Z,117
2022-10-29T19:01:23.045Z,119
2022-10-29T19:02:27.575Z,119
2022-10-29T19:03:31.832Z,120
2022-10-29T19:04:36.469Z,118
2022-10-29T19:05:43.445Z,114
2022-10-29T19:06:47.941Z,125
2022-10-29T19:07:52.245Z,112
2022-10-29T19:08:56.909Z,121
2022-10-29T19:10:01.496Z,114
2022-10-29T19:11:13.421Z,114
2022-10-29T19:12:18.373Z,112
2022-10-29T19:13:23.822Z,108
2022-10-29T19:14:28.057Z,121
2022-10-29T19:15:32.726Z,113
2022-10-29T19:16:58.177Z,109
2022-10-29T19:18:02.985Z,110
2022-10-29T19:19:07.516Z,105
2022-10-29T19:20:11.611Z,108
2022-10-29T19:21:16.053Z,105
2022-10-29T19:22:22.478Z,107
2022-10-29T19:23:26.865Z,110
2022-10-29T19:24:31.693Z,108
2022-10-29T19:25:38.640Z,103
2022-10-29T19:26:41.575Z,105
2022-10-29T19:27:48.541Z,108
2022-10-29T19:28:52.762Z,102
2022-10-29T19:29:56.825Z,102
2022-10-29T19:31:00.928Z,101
2022-10-29T19:32:05.793Z,103
2022-10-29T19:33:14.765Z,101
2022-10-29T19:34:19.381Z,103
2022-10-29T19:35:23.705Z,98
2022-10-29T19:36:28.125Z,108
2022-10-29T19:37:33.165Z,102
2022-10-29T19:38:41.387Z,104
2022-10-29T19:39:46.070Z,110
2022-10-29T19:40:50.494Z,97
2022-10-29T19:41:55.520Z,97
2022-10-29T19:43:00.188Z,103
2022-10-29T19:44:04.377Z,98
2022-10-29T19:45:09.261Z,102
2022-10-29T19:46:13.729Z,107
2022-10-29T19:47:18.457Z,99
2022-10-29T19:48:23.074Z,104
2022-10-29T19:49:27.509Z,97
2022-10-29T19:50:31.790Z,105
2022-10-29T19:51:36.159Z,104
2022-10-29T19:52:40.690Z,105
2022-10-29T19:53:45.215Z,103
2022-10-29T19:54:54.421Z,107
2022-10-29T19:55:59.321Z,111
2022-10-29T19:57:03.481Z,104
2022-10-29T19:58:07.962Z,105
2022-10-29T19:59:12.316Z,105
2022-10-29T20:00:17.732Z,107
2022-10-29T20:01:21.492Z,108
2022-10-29T20:02:25.700Z,103
2022-10-29T20:03:30.036Z,102
2022-10-29T20:04:34.212Z,105
2022-10-29T20:05:40.475Z,103
2022-10-29T20:06:45.186Z,106
2022-10-29T20:07:50.001Z,100
2022-10-29T20:08:54.664Z,107
2022-10-29T20:09:59.151Z,107
2022-10-29T20:11:05.385Z,111
2022-10-29T20:12:10.177Z,108
2022-10-29T20:13:14.654Z,105
2022-10-29T20:14:19.141Z,106
2022-10-29T20:15:24.318Z,97
2022-10-29T20:16:31.396Z,99
2022-10-29T20:17:36.665Z,104
2022-10-29T20:18:41.128Z,102
2022-10-29T20:19:46.001Z,105
2022-10-29T20:20:50.443Z,105
2022-10-29T20:21:56.454Z,103
2022-10-29T20:23:01.521Z,111
2022-10-29T20:24:05.536Z,108
2022-10-29T20:25:10.030Z,112
2022-10-29T20:26:14.693Z,108
2022-10-29T20:27:21.374Z,113
2022-10-29T20:28:25.704Z,104
2022-10-29T20:29:33.193Z,107
2022-10-29T20:30:37.481Z,102
2022-10-29T20:31:42.051Z,105
2022-10-29T20:32:47.405Z,104
2022-10-29T20:33:51.697Z,97
2022-10-29T20:34:57.233Z,104
2022-10-29T20:36:01.830Z,97
2022-10-29T20:37:06.670Z,101
2022-10-29T20:38:14.633Z,94
2022-10-29T20:39:19.228Z,94
2022-10-29T20:40:23.777Z,99
2022-10-29T20:41:29.336Z,103
2022-10-29T20:42:33.617Z,95
2022-10-29T20:43:38.425Z,101
2022-10-29T20:44:42.992Z,104
2022-10-29T20:45:47.354Z,95
2022-10-29T20:46:52.189Z,92
2022-10-29T20:47:57.365Z,102
2022-10-29T20:49:17.997Z,102
2022-10-29T20:50:22.648Z,97
2022-10-29T20:51:27.068Z,90
2022-10-29T20:52:31.717Z,95
2022-10-29T20:53:39.204Z,101
2022-10-29T20:54:44.408Z,93
2022-10-29T20:55:48.752Z,92
2022-10-29T20:56:53.227Z,95
2022-10-29T20:57:58.039Z,99
2022-10-29T20:59:11.815Z,98
2022-10-29T21:00:16.013Z,95
2022-10-29T21:01:21.059Z,102
2022-10-29T21:02:25.731Z,103
2022-10-29T21:03:30.494Z,95
2022-10-29T21:04:45.612Z,88
2022-10-29T21:05:49.826Z,89
2022-10-29T21:06:54.336Z,96
2022-10-29T21:07:59.497Z,88
2022-10-29T21:09:03.552Z,94
2022-10-29T21:10:09.488Z,88
2022-10-29T21:11:14.514Z,88
2022-10-29T21:12:18.991Z,94
2022-10-29T21:13:23.900Z,101
2022-10-29T21:14:28.332Z,93
2022-10-29T21:15:34.409Z,96
2022-10-29T21:16:39.084Z,91
2022-10-29T21:17:43.720Z,85
2022-10-29T21:18:48.000Z,84
2022-10-29T21:19:52.764Z,88
2022-10-29T21:20:59.420Z,88
2022-10-29T21:22:04.133Z,91
2022-10-29T21:23:08.573Z,89
2022-10-29T21:24:13.157Z,86
2022-10-29T21:25:17.572Z,91
2022-10-29T21:26:22.288Z,80
2022-10-29T21:28:28.944Z,80
2022-10-29T21:29:45.040Z,76
2022-10-29T21:30:49.061Z,81
2022-10-29T21:31:58.700Z,76
2022-10-29T21:33:03.475Z,83
2022-10-29T21:34:07.673Z,69
2022-10-29T21:35:12.348Z,79
2022-10-29T21:36:16.793Z,74
2022-10-29T21:37:21.476Z,75
2022-10-29T21:38:26.569Z,68
2022-10-29T21:39:31.133Z,77
2022-10-29T21:40:36.980Z,69
2022-10-29T21:41:41.425Z,65